Edmonton Stony Plain Alta., Canada
Current Conditions -  °F | °C
As of 8:00 PM on Saturday 25 Oct 2014 (Local Time) from CWSE Reporting Station
Overcast Overcast  
Wind Chill:   Ceiling: 11800
Heat Index:   Visibility: 15mi
Dew Point: -3°   Wind: 10mph
Humidity: 54%   Direction: 90°E
Pressure: 29.56"   Gusts: NA
Location:  53.53°N, 114.1°W
Report Text: CWSE 260200Z 09009KT 15SM OVC118 06/M03 A2956 RMK SLP032 LAST OBS/NEXT 261100 UTC T00581028 WSI/SWOB
Loading
Personal Weather Stations






























Interactive Weather Map
Tropical Storm Tracking
New forecast layout! Learn more

10-Day Weather Forecast

Advertisements
Track Severe Weather on mobile